sensor_id;sensor_type;location;lat;lon;timestamp;pressure;altitude;pressure_sealevel;temperature;humidity
66887;BME280;67239;51.680;5.976;2023-05-27T00:01:00;102773.72;;;9.51;71.11
66887;BME280;67239;51.680;5.976;2023-05-27T00:03:46;102778.94;;;9.43;71.28
66887;BME280;67239;51.680;5.976;2023-05-27T00:06:32;102787.72;;;9.39;71.69
66887;BME280;67239;51.680;5.976;2023-05-27T00:09:17;102778.00;;;9.31;71.73
66887;BME280;67239;51.680;5.976;2023-05-27T00:12:03;102780.63;;;9.28;72.02
66887;BME280;67239;51.680;5.976;2023-05-27T00:14:48;102774.47;;;9.25;72.09
66887;BME280;67239;51.680;5.976;2023-05-27T00:17:34;102777.06;;;9.19;72.19
66887;BME280;67239;51.680;5.976;2023-05-27T00:20:21;102772.66;;;9.17;72.38
66887;BME280;67239;51.680;5.976;2023-05-27T00:23:07;102782.31;;;9.17;72.39
66887;BME280;67239;51.680;5.976;2023-05-27T00:25:52;102781.41;;;9.13;72.60
66887;BME280;67239;51.680;5.976;2023-05-27T00:28:38;102780.50;;;9.07;72.43
66887;BME280;67239;51.680;5.976;2023-05-27T00:31:23;102777.00;;;9.08;73.06
66887;BME280;67239;51.680;5.976;2023-05-27T00:34:10;102770.84;;;9.07;72.95
66887;BME280;67239;51.680;5.976;2023-05-27T00:36:57;102773.47;;;9.04;73.01
66887;BME280;67239;51.680;5.976;2023-05-27T00:39:42;102771.66;;;9.00;73.24
66887;BME280;67239;51.680;5.976;2023-05-27T00:42:28;102772.53;;;8.97;73.22
66887;BME280;67239;51.680;5.976;2023-05-27T00:45:13;102775.09;;;8.91;73.38
66887;BME280;67239;51.680;5.976;2023-05-27T00:48:02;102776.84;;;8.88;73.90
66887;BME280;67239;51.680;5.976;2023-05-27T00:50:49;102777.72;;;8.91;73.85
66887;BME280;67239;51.680;5.976;2023-05-27T00:53:43;102772.47;;;8.88;73.88
66887;BME280;67239;51.680;5.976;2023-05-27T00:56:29;102768.94;;;8.84;74.04
66887;BME280;67239;51.680;5.976;2023-05-27T00:59:15;102781.16;;;8.81;74.07
66887;BME280;67239;51.680;5.976;2023-05-27T01:02:01;102768.81;;;8.70;74.23
66887;BME280;67239;51.680;5.976;2023-05-27T01:04:46;102769.69;;;8.69;74.75
66887;BME280;67239;51.680;5.976;2023-05-27T01:10:56;102762.56;;;8.58;75.34
66887;BME280;67239;51.680;5.976;2023-05-27T01:13:46;102769.59;;;8.59;75.46
66887;BME280;67239;51.680;5.976;2023-05-27T01:16:41;102761.69;;;8.57;75.66
66887;BME280;67239;51.680;5.976;2023-05-27T01:19:34;102762.53;;;8.53;75.47
66887;BME280;67239;51.680;5.976;2023-05-27T01:22:26;102749.31;;;8.47;75.70
66887;BME280;67239;51.680;5.976;2023-05-27T01:25:13;102750.16;;;8.44;76.01
66887;BME280;67239;51.680;5.976;2023-05-27T01:27:59;102742.25;;;8.41;76.32
66887;BME280;67239;51.680;5.976;2023-05-27T01:30:45;102749.34;;;8.48;76.57
66887;BME280;67239;51.680;5.976;2023-05-27T01:33:32;102738.75;;;8.45;76.54
66887;BME280;67239;51.680;5.976;2023-05-27T01:36:25;102738.75;;;8.44;76.40
66887;BME280;67239;51.680;5.976;2023-05-27T01:39:13;102742.22;;;8.39;76.58
66887;BME280;67239;51.680;5.976;2023-05-27T01:42:01;102743.94;;;8.34;77.21
66887;BME280;67239;51.680;5.976;2023-05-27T01:44:49;102752.69;;;8.33;77.01
66887;BME280;67239;51.680;5.976;2023-05-27T01:47:38;102745.63;;;8.28;77.46
66887;BME280;67239;51.680;5.976;2023-05-27T01:50:23;102749.13;;;8.28;77.31
66887;BME280;67239;51.680;5.976;2023-05-27T01:53:10;102751.72;;;8.23;77.54
66887;BME280;67239;51.680;5.976;2023-05-27T01:55:57;102749.91;;;8.18;77.72
66887;BME280;67239;51.680;5.976;2023-05-27T01:58:42;102754.25;;;8.16;77.93
66887;BME280;67239;51.680;5.976;2023-05-27T02:01:27;102748.09;;;8.15;78.43
66887;BME280;67239;51.680;5.976;2023-05-27T02:04:14;102742.84;;;8.15;78.30
66887;BME280;67239;51.680;5.976;2023-05-27T02:06:59;102739.41;;;8.18;78.30
66887;BME280;67239;51.680;5.976;2023-05-27T02:09:45;102734.16;;;8.21;78.72
66887;BME280;67239;51.680;5.976;2023-05-27T02:12:31;102738.59;;;8.23;78.73
66887;BME280;67239;51.680;5.976;2023-05-27T02:15:16;102742.97;;;8.26;78.75
66887;BME280;67239;51.680;5.976;2023-05-27T02:18:01;102742.13;;;8.30;78.44
66887;BME280;67239;51.680;5.976;2023-05-27T02:20:47;102734.19;;;8.26;78.28
66887;BME280;67239;51.680;5.976;2023-05-27T02:23:33;102735.06;;;8.24;78.62
66887;BME280;67239;51.680;5.976;2023-05-27T02:26:19;102736.78;;;8.21;78.50
66887;BME280;67239;51.680;5.976;2023-05-27T02:29:04;102727.94;;;8.14;78.51
66887;BME280;67239;51.680;5.976;2023-05-27T02:31:49;102739.28;;;8.07;78.82
66887;BME280;67239;51.680;5.976;2023-05-27T02:34:35;102736.63;;;8.05;78.96
66887;BME280;67239;51.680;5.976;2023-05-27T02:37:22;102743.63;;;8.03;79.17
66887;BME280;67239;51.680;5.976;2023-05-27T02:40:11;102741.84;;;8.04;79.46
66887;BME280;67239;51.680;5.976;2023-05-27T02:42:56;102750.59;;;8.01;79.47
66887;BME280;67239;51.680;5.976;2023-05-27T02:45:42;102748.00;;;8.06;79.60
66887;BME280;67239;51.680;5.976;2023-05-27T02:48:27;102753.25;;;8.03;79.55
66887;BME280;67239;51.680;5.976;2023-05-27T02:51:12;102746.19;;;7.97;79.79
66887;BME280;67239;51.680;5.976;2023-05-27T02:53:58;102745.34;;;8.00;79.82
66887;BME280;67239;51.680;5.976;2023-05-27T02:56:44;102753.13;;;7.92;79.65
66887;BME280;67239;51.680;5.976;2023-05-27T02:59:29;102757.38;;;7.81;80.08
66887;BME280;67239;51.680;5.976;2023-05-27T03:02:14;102752.03;;;7.73;80.47
66887;BME280;67239;51.680;5.976;2023-05-27T03:05:00;102745.84;;;7.68;80.72
66887;BME280;67239;51.680;5.976;2023-05-27T03:07:45;102751.03;;;7.65;81.19
66887;BME280;67239;51.680;5.976;2023-05-27T03:10:31;102750.97;;;7.60;81.32
66887;BME280;67239;51.680;5.976;2023-05-27T03:13:17;102752.69;;;7.55;81.61
66887;BME280;67239;51.680;5.976;2023-05-27T03:16:03;102744.84;;;7.58;81.87
66887;BME280;67239;51.680;5.976;2023-05-27T03:18:48;102758.84;;;7.57;81.68
66887;BME280;67239;51.680;5.976;2023-05-27T03:21:34;102748.31;;;7.55;81.78
66887;BME280;67239;51.680;5.976;2023-05-27T03:24:20;102749.16;;;7.51;81.96
66887;BME280;67239;51.680;5.976;2023-05-27T03:27:06;102750.84;;;7.49;82.20
66887;BME280;67239;51.680;5.976;2023-05-27T03:29:55;102752.56;;;7.47;82.38
66887;BME280;67239;51.680;5.976;2023-05-27T03:32:40;102754.28;;;7.43;82.56
66887;BME280;67239;51.680;5.976;2023-05-27T03:35:25;102752.50;;;7.42;82.89
66887;BME280;67239;51.680;5.976;2023-05-27T03:38:11;102746.47;;;7.46;82.91
66887;BME280;67239;51.680;5.976;2023-05-27T03:40:56;102754.34;;;7.46;82.81
66887;BME280;67239;51.680;5.976;2023-05-27T03:43:42;102749.09;;;7.50;82.88
66887;BME280;67239;51.680;5.976;2023-05-27T03:46:28;102746.53;;;7.53;82.66
66887;BME280;67239;51.680;5.976;2023-05-27T03:49:13;102742.16;;;7.53;82.95
66887;BME280;67239;51.680;5.976;2023-05-27T03:51:59;102728.22;;;7.57;82.86
66887;BME280;67239;51.680;5.976;2023-05-27T03:54:47;102732.66;;;7.63;82.71
66887;BME280;67239;51.680;5.976;2023-05-27T03:57:32;102727.41;;;7.65;82.36
66887;BME280;67239;51.680;5.976;2023-05-27T04:00:18;102723.06;;;7.68;82.09
66887;BME280;67239;51.680;5.976;2023-05-27T04:03:06;102730.09;;;7.68;81.94
66887;BME280;67239;51.680;5.976;2023-05-27T04:05:51;102719.53;;;7.65;82.31
66887;BME280;67239;51.680;5.976;2023-05-27T04:08:37;102722.22;;;7.68;82.27
66887;BME280;67239;51.680;5.976;2023-05-27T04:11:26;102730.13;;;7.72;82.42
66887;BME280;67239;51.680;5.976;2023-05-27T04:14:12;102724.94;;;7.78;82.24
66887;BME280;67239;51.680;5.976;2023-05-27T04:16:57;102727.63;;;7.80;81.90
66887;BME280;67239;51.680;5.976;2023-05-27T04:19:43;102725.88;;;7.82;81.99
66887;BME280;67239;51.680;5.976;2023-05-27T04:22:29;102721.50;;;7.84;82.09
66887;BME280;67239;51.680;5.976;2023-05-27T04:25:16;102717.19;;;7.88;82.03
66887;BME280;67239;51.680;5.976;2023-05-27T04:28:17;102720.78;;;7.98;82.06
66887;BME280;67239;51.680;5.976;2023-05-27T04:31:05;102718.25;;;8.05;81.63
66887;BME280;67239;51.680;5.976;2023-05-27T04:33:59;102710.47;;;8.16;81.68
66887;BME280;67239;51.680;5.976;2023-05-27T04:36:45;102708.81;;;8.28;80.85
66887;BME280;67239;51.680;5.976;2023-05-27T04:39:37;102711.50;;;8.32;80.83
66887;BME280;67239;51.680;5.976;2023-05-27T04:42:30;102709.84;;;8.42;80.86
66887;BME280;67239;51.680;5.976;2023-05-27T04:45:18;102710.19;;;8.84;79.56
66887;BME280;67239;51.680;5.976;2023-05-27T04:48:03;102709.84;;;10.21;75.25
66887;BME280;67239;51.680;5.976;2023-05-27T04:50:49;102702.84;;;10.70;72.30
66887;BME280;67239;51.680;5.976;2023-05-27T04:53:38;102702.81;;;10.34;72.37
66887;BME280;67239;51.680;5.976;2023-05-27T04:56:23;102692.25;;;10.02;73.04
66887;BME280;67239;51.680;5.976;2023-05-27T04:59:09;102697.44;;;9.74;74.10
66887;BME280;67239;51.680;5.976;2023-05-27T05:02:01;102691.25;;;9.58;74.95
66887;BME280;67239;51.680;5.976;2023-05-27T05:05:14;102699.13;;;9.45;75.70
66887;BME280;67239;51.680;5.976;2023-05-27T05:07:59;102700.88;;;9.50;75.85
66887;BME280;67239;51.680;5.976;2023-05-27T05:10:46;102700.09;;;9.71;75.71
66887;BME280;67239;51.680;5.976;2023-05-27T05:13:34;102682.59;;;10.01;74.60
66887;BME280;67239;51.680;5.976;2023-05-27T05:16:19;102688.75;;;10.06;74.11
66887;BME280;67239;51.680;5.976;2023-05-27T05:19:04;102688.75;;;10.12;74.25
66887;BME280;67239;51.680;5.976;2023-05-27T05:21:54;102685.22;;;10.16;74.16
66887;BME280;67239;51.680;5.976;2023-05-27T05:24:39;102684.38;;;10.71;73.11
66887;BME280;67239;51.680;5.976;2023-05-27T05:27:25;102678.19;;;12.50;67.86
66887;BME280;67239;51.680;5.976;2023-05-27T05:30:11;102673.16;;;14.37;62.10
66887;BME280;67239;51.680;5.976;2023-05-27T05:32:58;102670.69;;;15.64;57.45
66887;BME280;67239;51.680;5.976;2023-05-27T05:35:48;102664.97;;;16.55;53.96
66887;BME280;67239;51.680;5.976;2023-05-27T05:38:44;102657.44;;;17.64;51.99
66887;BME280;67239;51.680;5.976;2023-05-27T05:41:31;102658.47;;;18.15;48.40
66887;BME280;67239;51.680;5.976;2023-05-27T05:44:17;102658.28;;;18.47;47.59
66887;BME280;67239;51.680;5.976;2023-05-27T05:47:02;102658.38;;;18.96;46.63
66887;BME280;67239;51.680;5.976;2023-05-27T05:49:48;102650.09;;;19.28;44.87
66887;BME280;67239;51.680;5.976;2023-05-27T05:52:34;102644.88;;;19.47;43.62
66887;BME280;67239;51.680;5.976;2023-05-27T05:55:20;102659.88;;;19.51;43.20
66887;BME280;67239;51.680;5.976;2023-05-27T05:58:07;102661.44;;;19.33;43.76
66887;BME280;67239;51.680;5.976;2023-05-27T06:00:53;102648.59;;;19.43;43.51
66887;BME280;67239;51.680;5.976;2023-05-27T06:03:59;102651.28;;;19.65;43.55
66887;BME280;67239;51.680;5.976;2023-05-27T06:06:54;102656.91;;;19.81;42.50
66887;BME280;67239;51.680;5.976;2023-05-27T06:09:55;102660.69;;;18.80;44.23
66887;BME280;67239;51.680;5.976;2023-05-27T06:12:50;102668.38;;;16.26;49.73
66887;BME280;67239;51.680;5.976;2023-05-27T06:15:35;102668.44;;;14.55;54.64
66887;BME280;67239;51.680;5.976;2023-05-27T06:18:21;102661.09;;;13.60;58.06
66887;BME280;67239;51.680;5.976;2023-05-27T06:21:07;102664.31;;;13.12;60.65
66887;BME280;67239;51.680;5.976;2023-05-27T06:24:12;102666.25;;;12.99;62.63
66887;BME280;67239;51.680;5.976;2023-05-27T06:27:01;102673.50;;;12.81;62.54
66887;BME280;67239;51.680;5.976;2023-05-27T06:29:47;102670.22;;;12.54;63.75
66887;BME280;67239;51.680;5.976;2023-05-27T06:32:38;102670.31;;;12.42;64.49
66887;BME280;67239;51.680;5.976;2023-05-27T06:35:23;102666.88;;;12.34;64.99
66887;BME280;67239;51.680;5.976;2023-05-27T06:38:08;102647.53;;;12.29;65.64
66887;BME280;67239;51.680;5.976;2023-05-27T06:40:54;102651.00;;;12.34;66.17
66887;BME280;67239;51.680;5.976;2023-05-27T06:43:39;102656.28;;;12.37;65.67
66887;BME280;67239;51.680;5.976;2023-05-27T06:46:49;102651.91;;;12.31;66.09
66887;BME280;67239;51.680;5.976;2023-05-27T06:49:49;102649.25;;;12.34;66.48
66887;BME280;67239;51.680;5.976;2023-05-27T06:52:34;102644.78;;;12.39;66.25
66887;BME280;67239;51.680;5.976;2023-05-27T06:55:30;102645.69;;;12.37;66.43
66887;BME280;67239;51.680;5.976;2023-05-27T06:58:18;102644.75;;;12.46;67.11
66887;BME280;67239;51.680;5.976;2023-05-27T07:01:14;102633.09;;;12.64;66.56
66887;BME280;67239;51.680;5.976;2023-05-27T07:04:04;102632.94;;;12.78;65.86
66887;BME280;67239;51.680;5.976;2023-05-27T07:07:00;102630.22;;;12.82;65.89
66887;BME280;67239;51.680;5.976;2023-05-27T07:09:46;102632.75;;;12.96;65.46
66887;BME280;67239;51.680;5.976;2023-05-27T07:12:31;102629.16;;;13.02;65.07
66887;BME280;67239;51.680;5.976;2023-05-27T07:15:33;102631.72;;;13.08;64.62
66887;BME280;67239;51.680;5.976;2023-05-27T07:18:19;102627.28;;;13.10;64.69
66887;BME280;67239;51.680;5.976;2023-05-27T07:21:06;102629.03;;;13.11;65.35
66887;BME280;67239;51.680;5.976;2023-05-27T07:23:53;102633.31;;;13.22;64.62
66887;BME280;67239;51.680;5.976;2023-05-27T07:26:46;102627.22;;;13.15;65.48
66887;BME280;67239;51.680;5.976;2023-05-27T07:29:33;102630.47;;;13.34;65.25
66887;BME280;67239;51.680;5.976;2023-05-27T07:32:30;102622.34;;;13.51;64.61
66887;BME280;67239;51.680;5.976;2023-05-27T07:35:16;102622.00;;;13.74;64.51
66887;BME280;67239;51.680;5.976;2023-05-27T07:38:02;102618.19;;;13.92;64.10
66887;BME280;67239;51.680;5.976;2023-05-27T07:40:48;102619.72;;;14.07;63.13
66887;BME280;67239;51.680;5.976;2023-05-27T07:43:34;102617.72;;;14.22;62.88
66887;BME280;67239;51.680;5.976;2023-05-27T07:46:20;102610.31;;;14.39;62.10
66887;BME280;67239;51.680;5.976;2023-05-27T07:49:05;102608.34;;;14.51;60.88
66887;BME280;67239;51.680;5.976;2023-05-27T07:51:55;102612.72;;;14.53;62.27
66887;BME280;67239;51.680;5.976;2023-05-27T07:54:41;102599.13;;;14.72;61.26
66887;BME280;67239;51.680;5.976;2023-05-27T07:57:40;102594.56;;;14.79;60.30
66887;BME280;67239;51.680;5.976;2023-05-27T08:00:27;102596.38;;;14.78;60.55
66887;BME280;67239;51.680;5.976;2023-05-27T08:03:12;102597.13;;;14.85;60.32
66887;BME280;67239;51.680;5.976;2023-05-27T08:06:30;102592.56;;;14.90;60.44
66887;BME280;67239;51.680;5.976;2023-05-27T08:09:18;102586.75;;;15.15;59.93
66887;BME280;67239;51.680;5.976;2023-05-27T08:12:35;102586.44;;;15.29;59.41
66887;BME280;67239;51.680;5.976;2023-05-27T08:15:46;102582.56;;;15.44;58.46
66887;BME280;67239;51.680;5.976;2023-05-27T08:18:59;102576.25;;;15.48;59.05
66887;BME280;67239;51.680;5.976;2023-05-27T08:21:58;102569.78;;;15.60;59.29
66887;BME280;67239;51.680;5.976;2023-05-27T08:25:09;102570.25;;;15.77;57.94
66887;BME280;67239;51.680;5.976;2023-05-27T08:28:03;102566.44;;;15.89;57.61
66887;BME280;67239;51.680;5.976;2023-05-27T08:31:00;102546.03;;;15.90;57.25
66887;BME280;67239;51.680;5.976;2023-05-27T08:33:54;102555.59;;;15.97;57.09
66887;BME280;67239;51.680;5.976;2023-05-27T08:36:39;102547.44;;;16.03;56.15
66887;BME280;67239;51.680;5.976;2023-05-27T08:39:25;102549.06;;;16.09;56.72
66887;BME280;67239;51.680;5.976;2023-05-27T08:42:22;102543.38;;;16.23;56.18
66887;BME280;67239;51.680;5.976;2023-05-27T08:45:09;102536.69;;;16.41;56.35
66887;BME280;67239;51.680;5.976;2023-05-27T08:47:56;102534.69;;;16.49;56.30
66887;BME280;67239;51.680;5.976;2023-05-27T08:50:50;102531.25;;;16.75;55.82
66887;BME280;67239;51.680;5.976;2023-05-27T08:53:35;102523.75;;;16.90;55.26
66887;BME280;67239;51.680;5.976;2023-05-27T08:56:21;102519.84;;;17.02;54.20
66887;BME280;67239;51.680;5.976;2023-05-27T08:59:08;102516.03;;;17.11;53.37
66887;BME280;67239;51.680;5.976;2023-05-27T09:01:56;102514.34;;;17.08;53.21
66887;BME280;67239;51.680;5.976;2023-05-27T09:04:42;102503.63;;;17.10;52.92
66887;BME280;67239;51.680;5.976;2023-05-27T09:07:27;102493.44;;;17.22;51.92
66887;BME280;67239;51.680;5.976;2023-05-27T09:10:13;102502.66;;;17.41;52.59
66887;BME280;67239;51.680;5.976;2023-05-27T09:12:59;102501.28;;;17.56;52.88
66887;BME280;67239;51.680;5.976;2023-05-27T09:15:44;102497.81;;;17.79;52.74
66887;BME280;67239;51.680;5.976;2023-05-27T09:18:32;102490.91;;;18.00;51.32
66887;BME280;67239;51.680;5.976;2023-05-27T09:21:20;102498.44;;;18.12;50.98
66887;BME280;67239;51.680;5.976;2023-05-27T09:24:05;102491.75;;;18.26;49.55
66887;BME280;67239;51.680;5.976;2023-05-27T09:26:54;102489.72;;;18.33;49.96
66887;BME280;67239;51.680;5.976;2023-05-27T09:29:40;102490.22;;;18.44;50.71
66887;BME280;67239;51.680;5.976;2023-05-27T09:32:27;102488.22;;;18.73;49.81
66887;BME280;67239;51.680;5.976;2023-05-27T09:35:16;102492.28;;;18.83;49.95
66887;BME280;67239;51.680;5.976;2023-05-27T09:38:06;102486.53;;;18.94;50.32
66887;BME280;67239;51.680;5.976;2023-05-27T09:40:52;102483.00;;;19.16;49.41
66887;BME280;67239;51.680;5.976;2023-05-27T09:43:38;102475.41;;;19.27;47.78
66887;BME280;67239;51.680;5.976;2023-05-27T09:46:29;102468.09;;;19.32;47.33
66887;BME280;67239;51.680;5.976;2023-05-27T09:49:18;102466.97;;;19.38;47.58
66887;BME280;67239;51.680;5.976;2023-05-27T09:52:05;102463.81;;;19.49;47.01
66887;BME280;67239;51.680;5.976;2023-05-27T09:54:52;102450.66;;;19.65;47.40
66887;BME280;67239;51.680;5.976;2023-05-27T09:57:42;102451.66;;;19.83;46.24
66887;BME280;67239;51.680;5.976;2023-05-27T10:00:29;102443.78;;;19.80;46.97
66887;BME280;67239;51.680;5.976;2023-05-27T10:03:17;102450.28;;;19.95;46.97
66887;BME280;67239;51.680;5.976;2023-05-27T10:06:07;102441.28;;;20.16;44.50
66887;BME280;67239;51.680;5.976;2023-05-27T10:08:54;102442.81;;;20.22;42.10
66887;BME280;67239;51.680;5.976;2023-05-27T10:11:40;102446.63;;;20.16;42.98
66887;BME280;67239;51.680;5.976;2023-05-27T10:14:26;102439.53;;;20.15;44.00
66887;BME280;67239;51.680;5.976;2023-05-27T10:17:11;102441.59;;;20.29;43.10
66887;BME280;67239;51.680;5.976;2023-05-27T10:19:57;102432.44;;;20.14;42.74
66887;BME280;67239;51.680;5.976;2023-05-27T10:22:45;102430.84;;;20.10;42.35
66887;BME280;67239;51.680;5.976;2023-05-27T10:25:38;102432.56;;;20.11;43.45
66887;BME280;67239;51.680;5.976;2023-05-27T10:28:26;102435.97;;;20.15;41.44
66887;BME280;67239;51.680;5.976;2023-05-27T10:31:19;102423.63;;;20.12;42.92
66887;BME280;67239;51.680;5.976;2023-05-27T10:34:05;102426.44;;;20.28;42.30
66887;BME280;67239;51.680;5.976;2023-05-27T10:36:59;102417.47;;;20.29;42.20
66887;BME280;67239;51.680;5.976;2023-05-27T10:39:54;102426.47;;;20.47;41.64
66887;BME280;67239;51.680;5.976;2023-05-27T10:42:40;102416.16;;;20.57;41.29
66887;BME280;67239;51.680;5.976;2023-05-27T10:45:31;102416.38;;;20.72;42.19
66887;BME280;67239;51.680;5.976;2023-05-27T10:48:20;102409.22;;;20.91;42.49
66887;BME280;67239;51.680;5.976;2023-05-27T10:51:06;102402.56;;;21.18;40.97
66887;BME280;67239;51.680;5.976;2023-05-27T10:53:52;102404.91;;;21.24;38.75
66887;BME280;67239;51.680;5.976;2023-05-27T10:57:01;102398.50;;;21.09;36.81
66887;BME280;67239;51.680;5.976;2023-05-27T10:59:52;102397.91;;;21.21;37.82
66887;BME280;67239;51.680;5.976;2023-05-27T11:02:44;102393.09;;;21.28;38.59
66887;BME280;67239;51.680;5.976;2023-05-27T11:05:29;102384.09;;;21.29;39.43
66887;BME280;67239;51.680;5.976;2023-05-27T11:08:17;102385.38;;;21.39;38.18
66887;BME280;67239;51.680;5.976;2023-05-27T11:11:10;102383.69;;;21.37;37.50
66887;BME280;67239;51.680;5.976;2023-05-27T11:13:56;102378.75;;;21.29;38.06
66887;BME280;67239;51.680;5.976;2023-05-27T11:16:48;102370.66;;;21.47;37.97
66887;BME280;67239;51.680;5.976;2023-05-27T11:19:38;102367.50;;;21.56;37.29
66887;BME280;67239;51.680;5.976;2023-05-27T11:22:24;102362.47;;;21.67;38.53
66887;BME280;67239;51.680;5.976;2023-05-27T11:25:10;102352.13;;;21.93;37.33
66887;BME280;67239;51.680;5.976;2023-05-27T11:27:55;102352.50;;;22.03;37.26
66887;BME280;67239;51.680;5.976;2023-05-27T11:30:41;102341.59;;;22.06;36.57
66887;BME280;67239;51.680;5.976;2023-05-27T11:33:31;102340.13;;;22.00;36.11
66887;BME280;67239;51.680;5.976;2023-05-27T11:36:25;102338.22;;;22.02;37.14
66887;BME280;67239;51.680;5.976;2023-05-27T11:39:14;102335.97;;;22.11;36.82
66887;BME280;67239;51.680;5.976;2023-05-27T11:42:08;102330.09;;;22.20;35.11
66887;BME280;67239;51.680;5.976;2023-05-27T11:44:54;102325.13;;;22.12;35.64
66887;BME280;67239;51.680;5.976;2023-05-27T11:47:44;102323.75;;;22.21;35.70
66887;BME280;67239;51.680;5.976;2023-05-27T11:50:32;102316.56;;;22.38;35.44
66887;BME280;67239;51.680;5.976;2023-05-27T11:53:19;102325.75;;;22.49;35.49
66887;BME280;67239;51.680;5.976;2023-05-27T11:56:05;102303.50;;;22.47;34.53
66887;BME280;67239;51.680;5.976;2023-05-27T11:58:50;102306.34;;;22.44;34.33
66887;BME280;67239;51.680;5.976;2023-05-27T12:01:36;102303.84;;;22.41;33.73
66887;BME280;67239;51.680;5.976;2023-05-27T12:04:21;102306.47;;;22.43;34.38
66887;BME280;67239;51.680;5.976;2023-05-27T12:07:07;102293.09;;;22.41;34.43
66887;BME280;67239;51.680;5.976;2023-05-27T12:10:04;102296.19;;;22.49;34.88
66887;BME280;67239;51.680;5.976;2023-05-27T12:12:50;102286.63;;;22.60;35.04
66887;BME280;67239;51.680;5.976;2023-05-27T12:15:35;102282.81;;;22.64;35.63
66887;BME280;67239;51.680;5.976;2023-05-27T12:18:20;102275.53;;;22.66;35.31
66887;BME280;67239;51.680;5.976;2023-05-27T12:21:06;102273.53;;;22.70;35.07
66887;BME280;67239;51.680;5.976;2023-05-27T12:23:51;102269.19;;;22.83;35.34
66887;BME280;67239;51.680;5.976;2023-05-27T12:26:36;102269.41;;;23.09;33.91
66887;BME280;67239;51.680;5.976;2023-05-27T12:29:22;102263.84;;;23.12;34.18
66887;BME280;67239;51.680;5.976;2023-05-27T12:32:09;102266.59;;;23.10;36.01
66887;BME280;67239;51.680;5.976;2023-05-27T12:34:54;102263.78;;;23.42;35.12
66887;BME280;67239;51.680;5.976;2023-05-27T12:37:40;102262.66;;;23.47;34.37
66887;BME280;67239;51.680;5.976;2023-05-27T12:40:26;102259.56;;;23.38;33.52
66887;BME280;67239;51.680;5.976;2023-05-27T12:43:12;102247.94;;;23.38;33.21
66887;BME280;67239;51.680;5.976;2023-05-27T12:45:57;102250.16;;;23.46;32.95
66887;BME280;67239;51.680;5.976;2023-05-27T12:48:44;102243.63;;;23.50;31.53
66887;BME280;67239;51.680;5.976;2023-05-27T12:51:29;102238.53;;;23.31;32.52
66887;BME280;67239;51.680;5.976;2023-05-27T12:54:15;102229.69;;;23.29;32.77
66887;BME280;67239;51.680;5.976;2023-05-27T12:57:01;102235.25;;;23.40;32.48
66887;BME280;67239;51.680;5.976;2023-05-27T12:59:50;102227.38;;;23.37;32.90
66887;BME280;67239;51.680;5.976;2023-05-27T13:02:35;102230.25;;;23.48;32.69
66887;BME280;67239;51.680;5.976;2023-05-27T13:05:22;102220.25;;;23.36;32.84
66887;BME280;67239;51.680;5.976;2023-05-27T13:08:07;102224.59;;;23.38;33.59
66887;BME280;67239;51.680;5.976;2023-05-27T13:10:53;102218.88;;;23.57;33.47
66887;BME280;67239;51.680;5.976;2023-05-27T13:13:38;102207.22;;;23.71;32.34
66887;BME280;67239;51.680;5.976;2023-05-27T13:16:24;102214.28;;;23.74;32.71
66887;BME280;67239;51.680;5.976;2023-05-27T13:19:09;102206.63;;;23.95;33.82
66887;BME280;67239;51.680;5.976;2023-05-27T13:21:54;102203.94;;;24.23;33.85
66887;BME280;67239;51.680;5.976;2023-05-27T13:24:39;102209.63;;;24.58;31.98
66887;BME280;67239;51.680;5.976;2023-05-27T13:27:25;102204.25;;;24.58;31.57
66887;BME280;67239;51.680;5.976;2023-05-27T13:30:13;102203.47;;;24.56;31.42
66887;BME280;67239;51.680;5.976;2023-05-27T13:32:59;102198.28;;;24.53;31.99
66887;BME280;67239;51.680;5.976;2023-05-27T13:35:44;102188.72;;;24.62;31.45
66887;BME280;67239;51.680;5.976;2023-05-27T13:38:30;102189.28;;;24.67;31.15
66887;BME280;67239;51.680;5.976;2023-05-27T13:41:15;102189.34;;;24.65;31.21
66887;BME280;67239;51.680;5.976;2023-05-27T13:44:00;102189.34;;;24.65;30.04
66887;BME280;67239;51.680;5.976;2023-05-27T13:46:46;102186.97;;;24.48;30.26
66887;BME280;67239;51.680;5.976;2023-05-27T13:49:31;102183.03;;;24.26;30.30
66887;BME280;67239;51.680;5.976;2023-05-27T13:52:17;102177.63;;;24.13;30.86
66887;BME280;67239;51.680;5.976;2023-05-27T13:55:02;102163.19;;;24.14;31.37
66887;BME280;67239;51.680;5.976;2023-05-27T13:57:48;102164.84;;;24.30;30.33
66887;BME280;67239;51.680;5.976;2023-05-27T14:00:34;102152.63;;;24.24;30.24
66887;BME280;67239;51.680;5.976;2023-05-27T14:03:20;102148.84;;;24.14;30.68
66887;BME280;67239;51.680;5.976;2023-05-27T14:06:07;102140.25;;;24.22;30.58
66887;BME280;67239;51.680;5.976;2023-05-27T14:08:53;102144.56;;;24.24;31.10
66887;BME280;67239;51.680;5.976;2023-05-27T14:11:39;102142.19;;;24.32;30.29
66887;BME280;67239;51.680;5.976;2023-05-27T14:14:25;102137.00;;;24.16;31.18
66887;BME280;67239;51.680;5.976;2023-05-27T14:17:11;102138.09;;;24.27;30.84
66887;BME280;67239;51.680;5.976;2023-05-27T14:19:57;102129.81;;;24.30;31.14
66887;BME280;67239;51.680;5.976;2023-05-27T14:22:42;102126.28;;;24.42;29.93
66887;BME280;67239;51.680;5.976;2023-05-27T14:25:27;102122.69;;;24.29;31.06
66887;BME280;67239;51.680;5.976;2023-05-27T14:28:13;102125.44;;;24.42;30.75
66887;BME280;67239;51.680;5.976;2023-05-27T14:30:59;102118.63;;;24.49;29.82
66887;BME280;67239;51.680;5.976;2023-05-27T14:33:44;102121.72;;;24.43;30.52
66887;BME280;67239;51.680;5.976;2023-05-27T14:36:30;102112.38;;;24.61;30.21
66887;BME280;67239;51.680;5.976;2023-05-27T14:39:15;102110.34;;;24.78;29.78
66887;BME280;67239;51.680;5.976;2023-05-27T14:42:00;102109.72;;;24.74;29.49
66887;BME280;67239;51.680;5.976;2023-05-27T14:44:46;102108.59;;;24.64;29.61